MapTableWeb Map

Choose a state:
Most recent flow and stage for Wyoming
(Stations highlighted in red are currently above flood stage)
USGS
station
ID
USGS station name NWS
flood
stage
(ft)
Most recent
stage
(ft)
Most recent
flow
(cfs)
Historical
peaks
(cfs)
Most recent
local
date/time
NWS
station
ID
06036805 Firehole River at Old Faithful, YNP   3.44 245 477 2018-05-24 14:00:00  
06036905 Firehole River near West Yellowstone MT   4.58 966 2,050 2018-05-24 14:00:00  
06036940 Tantalus Creek at Norris Junction, YNP   1.64 5.58 25 2018-05-24 14:30:00  
06037100 Gibbon River at Madison Jct, YNP   5.91 735 1,010 2018-05-24 14:00:00 GMJW4
06186500 Yellowstone River at Yellowstone Lk Outlet YNP 9 5.91 3,960 9,950 2018-05-24 14:30:00 YLOW4
06188000 Lamar River nr Tower Ranger Station YNP 15 8.00 8,920 19,500 2018-05-24 14:15:00 TFLW4
06190540 Boiling River at Mammoth,YNP   1.34 30.6 36 2018-05-24 14:15:00  
06218500 WIND RIVER NEAR DUBOIS, WY 5 4.67 1,220 2,040 2018-05-24 14:15:00 DUBW4
06220800 WIND RIVER ABOVE RED CREEK, NEAR DUBOIS, WY 9.5 6.76 4,270 11,300 2018-05-24 14:45:00 WRCW4
06221400 DINWOODY CREEK ABOVE LAKES, NEAR BURRIS, WY   3.51 467 3,550 2018-05-24 14:45:00  
06224000 BULL LAKE CREEK ABOVE BULL LAKE, WY   4.58 1,070 4,830 2018-05-24 14:15:00  
06225000 BULL LAKE CREEK NEAR LENORE, WY 8.0

 

859 6,200 2017-09-30 23:14:00
06225500 WIND RIVER NEAR CROWHEART, WY 10

 

1,860 15,100 2017-09-30 21:15:00 CROW4
06227600 WIND RIVER NEAR KINNEAR, WY 9 7.87 6,250 16,600 2018-05-24 14:00:00 KINW4
06228000 WIND RIVER AT RIVERTON, WY 9 8.49 5,120 13,300 2018-05-24 14:15:00 WDRW4
06228350 SF L WIND RIV AB WASHAKIE RES, NR FT WASHAKIE, WY   4.55 526 2,970 2018-05-24 14:30:00  
06233000 LITTLE POPO AGIE RIVER NEAR LANDER, WY 5.5 3.62 342 2,010 2018-05-24 14:30:00 LPLW4
06235500 LITTLE WIND RIVER NEAR RIVERTON, WY 8 5.87 2,990 14,700 2018-05-24 14:15:00 RVTW4
06253000 FIVEMILE CREEK NEAR SHOSHONI, WY   3.07 264 3,500 2018-05-24 14:00:00  
06259000 WIND RIVER BELOW BOYSEN RESERVOIR, WY  

 

1,080 28,700 2015-09-02 23:45:00  
06268600 BIGHORN RIVER AT WORLAND, WY   5.75 2,120 15,900 2018-05-24 14:00:00  
06274300 BIGHORN RIVER AT BASIN, WY 10.5 7.39 7,030 19,500 2018-05-24 14:15:00 BHBW4
06276500 GREYBULL RIVER AT MEETEETSE, WY 7.5 4.22 1,280 13,600 2018-05-24 14:45:00 MEEW4
06278300 SHELL CREEK ABOVE SHELL CREEK RESERVOIR, WY   4.26 335 1,870 2018-05-24 14:45:00  
06278500 SHELL CREEK NEAR SHELL, WY 6.5 4.38 1,130 4,850 2018-05-24 14:45:00 SHEW4
06279500 BIGHORN RIVER AT KANE, WY   6.94 10,600 25,200 2018-05-24 14:15:00 LVEW4
06279940 NORTH FORK SHOSHONE RIVER AT WAPITI, WY 8 6.52 6,200 11,200 2018-05-24 14:15:00 NFSW4
06280300 SOUTH FORK SHOSHONE RIVER NEAR VALLEY, WY 9 6.28 1,160 10,000 2018-05-24 14:00:00 VLYW4
06281000 SOUTH FORK SHOSHONE RIVER AB BUFFALO BILL RES, WY 9.5 6.62 2,550 9,960 2018-05-24 14:00:00 BBRW4
06283995 Shoshone River ab Willwood Dam, nr Ralston, WY   27.47

 

  2018-05-24 14:00:00  
06284010 Shoshone River bl Willwood Dam, nr Ralston, WY   21.33

 

  2018-05-24 14:00:00  
06285100 SHOSHONE RIVER NEAR LOVELL, WY 11 8.60 4,200 16,400 2018-05-24 14:45:00 SLOW4
06289600 WEST PASS CREEK NEAR PARKMAN, WY   2.07 29.2 534 2018-05-24 14:00:00 WPPW4
06289820 EAST PASS CREEK NEAR DAYTON, WY   9.60 27.1 755 2018-05-24 14:00:00 EPCW4
06297500 HIGHLINE DITCH NEAR DAYTON, WY   1.86 23.0   2018-05-24 14:00:00  
06298000 TONGUE RIVER NEAR DAYTON, WY 6 3.91 955 3,400 2018-05-24 14:00:00 DAYW4
06299980 TONGUE RIVER AT MONARCH, WY   5.26 1,380 3,910 2018-05-24 14:00:00 TRMW4
06305700 GOOSE CREEK NEAR ACME, WY   4.82 858 11,920 2018-05-24 14:45:00  
06309200 MIDDLE FORK POWDER RIVER NEAR BARNUM, WY 10.5 5.89 54.5 7,110 2018-05-24 14:00:00 MFBW4
06311000 NORTH FORK POWDER RIVER NEAR HAZELTON, WY   3.56 126 886 2018-05-24 14:00:00  
06311400 NF POWDER RIVER BELOW PASS CREEK, NR MAYOWORTH, WY   5.47 290 1,590 2018-05-24 14:00:00  
06313400 SALT CREEK NEAR SUSSEX, WY  

 

5.20 10,200 1993-09-30 23:30:00  
06313500 POWDER RIVER AT SUSSEX, WY 11 3.64 369 32,500 2018-05-24 14:15:00 SXXW4
06317000 POWDER RIVER AT ARVADA, WY 8.5 2.60 489 100,000 2018-05-24 14:30:00 ARVW4
06318500 CLEAR CREEK NEAR BUFFALO, WY 6.5 3.52 569 3,420 2018-05-24 14:00:00 CCBW4
06324970 LITTLE POWDER RIVER AB DRY CREEK, NEAR WESTON, WY 13 2.19 9.35 5,300 2018-05-24 14:00:00 LPTW4
06375600 LITTLE THUNDER CREEK NEAR HAMPSHIRE, WY  

 

0.94 3,030 1997-12-31 23:30:00  
06392900 BEAVER CREEK AT MALLO CAMP, NEAR FOUR CORNERS, WY 6 1.04 1.95 154 2018-05-24 14:00:00 CMPW4
06392950 STOCKADE BEAVER CREEK NEAR NEWCASTLE, WY 12.5 6.94 15.4 776 2018-05-24 14:15:00 BCNW4
06426500 BELLE FOURCHE RIVER BELOW MOORCROFT, WY 13 1.39 8.54 15,300 2018-05-24 14:15:00 BFRW4
06429500 COLD SPRINGS CREEK AT BUCKHORN, WY 8 2.25 4.89 42 2018-05-24 14:00:00 HRNW4
06429905 SAND CREEK NEAR RANCH A, NEAR BEULAH, WY   1.88 32.3 1,230 2018-05-24 14:45:00 SNDW4
06620000 NORTH PLATTE RIVER NEAR NORTHGATE, CO 8 3.97 978 6,720 2018-05-24 14:45:00 NGTC2
06622700 NORTH BRUSH CREEK NEAR SARATOGA, WY   3.68 331 1,550 2018-05-24 14:30:00  
06622900 SOUTH BRUSH CREEK NEAR SARATOGA, WY   3.70 Ssn 1,230 2018-05-24 14:15:00  
06623800 ENCAMPMENT RIVER AB HOG PARK CR, NR ENCAMPMENT, WY 5.5 3.30 428 2,280 2018-05-24 14:30:00 HOGW4
06625000 ENCAMPMENT RIVER AT MOUTH, NEAR ENCAMPMENT, WY 6.5 3.75 836 4,720 2018-05-24 14:30:00 ECRW4
06630000 N PLATTE RIV AB SEMINOE RESERVOIR, NR SINCLAIR, WY 9 5.58 3,440 16,700 2018-05-24 14:45:00 SINW4
06630465 Medicine Bow R ab E Fk Med Bow nr Elk Mountain, WY 7 5.24 358 1,300 2018-05-24 14:45:00 MBRW4
06632400 ROCK CREEK AB KING CANYON CANAL, NR ARLINGTON, WY 6 2.75 481 2,800 2018-05-24 14:15:00 KCRW4
06634060 L Medicine Bow R ab Sand Cr, nr Shirley Basin, WY   1.62 11.8 569 2018-05-24 14:45:00  
06634620 L MEDICINE BOW R AT BOLES SPRING, NR MEDICINE BOW 8 1.52 28.1 1,900 2018-05-24 14:30:00 LMBW4
06635000 MEDICINE BOW R AB SEMINOE RESERVOIR, NR HANNA, WY 6 3.13 274 6,010 2018-05-24 14:45:00 HANW4
06638090 SWEETWATER RIVER NEAR SWEETWATER STATION, WY 7 3.92 440 5,750 2018-05-24 14:30:00 SWSW4
06639000 SWEETWATER RIVER NEAR ALCOVA, WY   2.75 223 4,290 2018-05-24 14:45:00 SWEW4
06642000 NORTH PLATTE RIVER AT ALCOVA, WY  

 

2,360 13,400 1998-09-30 23:30:00  
06646000 DEER CREEK IN CANYON, NEAR GLENROCK, WY   3.34 52.9 4,240 2018-05-24 14:45:00  
06652000 NORTH PLATTE RIVER AT ORIN, WY 8 5.04 3,160 23,800 2018-05-24 14:45:00 ORIW4
06657000 NORTH PLATTE RIVER BELOW WHALEN DIVERSION DAM, WY   5.64 510 22,000 2018-05-24 14:00:00  
06659580 SAND CREEK AT COLORADO-WYOMING STATE LINE   1.20 Ssn 6,710 2018-05-24 14:45:00  
06660000 LARAMIE RIVER AT LARAMIE, WY 9 6.98 579 3,250 2018-05-24 14:00:00 LLRW4
06670500 LARAMIE RIVER NEAR FORT LARAMIE, WY 7 2.88 84.3 6,260 2018-05-24 14:00:00 FLAW4
06674500 NORTH PLATTE RIVER AT WYOMING-NEBRASKA STATE LINE 5.5 2.78 569 17,900 2018-05-24 14:45:00 HENN1
06755960 CROW CREEK AT 19TH STREET, AT CHEYENNE, WY 8 1.79 8.33 769 2018-05-24 14:15:00 FEWW4
09188500 GREEN RIVER AT WARREN BRIDGE, NEAR DANIEL, WY 6 4.49 2,970 5,930 2018-05-24 14:45:00 WBRW4
09196500 PINE CREEK ABOVE FREMONT LAKE, WY   4.44 656 2,570 2018-05-24 14:45:00 FRAW4
09205000 NEW FORK RIVER NEAR BIG PINEY, WY 8 4.98 3,390 9,480 2018-05-24 14:00:00 BPNW4
09209400 GREEN RIVER NEAR LA BARGE, WY 9 7.94 7,020 18,800 2018-05-24 14:00:00 LABW4
09210500 FONTENELLE C NR HERSCHLER RANCH, NR FONTENELLE, WY 11.5 6.78 226 907 2018-05-24 14:45:00 FCHW4
09211200 GREEN RIVER BELOW FONTENELLE RESERVOIR, WY 16.5 14.69 6,210 19,400 2018-05-24 14:00:00 GBFW4
09213500 BIG SANDY RIVER NEAR FARSON, WY   4.81 455 1,890 2018-05-24 14:00:00 BSRW4
09213700 BIG SANDY RESERVOIR NEAR FARSON, WY   6758.11

 

  2018-05-24 14:00:00  
09215000 PACIFIC CREEK NEAR FARSON, WY   4.93 1.81 972 2018-05-24 14:45:00  
09217000 GREEN RIVER NEAR GREEN RIVER, WY 7 4.57 5,310 22,200 2018-05-24 14:30:00 GRRW4
09217900 BLACKS FORK NEAR ROBERTSON, WY 5 3.79 795 3,780 2018-05-24 14:00:00 BNRU1
09218500 BLACKS FORK NEAR MILLBURNE, WY   3.87 556 2,530 2018-05-24 14:00:00  
09219200 Blacks Fork above Smiths Fork, near Lyman, WY   3.26

 

  2018-05-24 14:45:00  
09220000 EAST FORK OF SMITHS FORK NEAR ROBERTSON, WY   4.55 133 1,450 2018-05-24 14:15:00 SFRW4
09223000 HAMS FORK BELOW POLE CREEK, NEAR FRONTIER, WY 6.5 4.39 337 2,230 2018-05-24 13:45:00 HMFW4
09224700 BLACKS FORK NEAR LITTLE AMERICA, WY 10.5 5.02 502 13,900 2018-05-24 14:00:00 LTAW4
09229500 HENRYS FORK NEAR MANILA, UT 7 3.27 Eqp 6,750 2018-05-24 13:15:00 HFMW4
09257000 LITTLE SNAKE RIVER NEAR DIXON, WY 9.5 5.48 1,190 13,000 2018-05-24 14:00:00 LSDW4
09258050 Muddy Creek above Olson Draw, near Dad, WY   3.39 5.46 465 2018-05-24 14:30:00  
09258980 MUDDY CREEK BELOW YOUNG DRAW, NEAR BAGGS, WY   2.23 4.00 755 2018-05-24 14:00:00  
10016900 BEAR RIVER AT EVANSTON, WY 7 3.28 824 3,890 2018-05-24 14:00:00 EVAW4
10020100 BEAR RIVER ABOVE RESERVOIR, NEAR WOODRUFF, UT   3.00 626 4,150 2018-05-24 14:45:00 BEAW4
10020300 BEAR RIVER BELOW RESERVOIR, NEAR WOODRUFF, UT   6.03 1,300 3,820 2018-05-24 14:45:00 BRWU1
10028500 BEAR RIVER BELOW PIXLEY DAM, NEAR COKEVILLE, WY 8.5 2.30 111 2,300 2018-05-24 14:15:00 PIXW4
10032000 SMITHS FORK NEAR BORDER, WY 5.5 2.50 624 2,100 2018-05-24 14:30:00 BORW4
10038000 BEAR RIVER BLW SMITHS FORK, NR COKEVILLE, WY 6 3.78 770 5,620 2018-05-24 14:30:00 COKW4
13010065 SNAKE RIVER AB JACKSON LAKE AT FLAGG RANCH WY 10 7.01 5,650 15,000 2018-05-24 14:30:00 FLGW4
13011000 SNAKE RIVER NR MORAN WY   8.06 6,390 15,100 2018-05-24 14:45:00 JLKW4
13011500 PACIFIC CREEK AT MORAN WY 8 7.59 2,210 5,790 2018-05-24 14:30:00 PACW4
13011820 Blackrock Cr bl Split Rock Cr, nr Moran, WY   5.09

 

  2018-05-24 14:15:00  
13011900 BUFFALO FORK AB LAVA CREEK NR MORAN WY 8.5 5.64 3,020 6,540 2018-05-24 14:30:00 BFKW4
13013650 SNAKE RIVER AT MOOSE, WY 15 13.84 13,400 25,300 2018-05-24 14:00:00 MSEW4
13014300 GROS VENTRE R AB UPPER SLIDE LK, NR KELLY, WY   10.68 2,290   2018-05-24 14:15:00  
13014500 GROS VENTRE RIVER AT KELLY, WY 8 8.41 3,680 6,960 2018-05-24 14:00:00 GVKW4
13015000 GROS VENTRE RIVER AT ZENITH WY   19.02 Rat 6,170 2018-05-24 14:15:00 GVZW4
13016305 GRANITE C AB GRANITE C SUPPLEMENTAL, NR MOOSE, WY   5.34 166 599 2018-05-24 14:00:00  
13016450 FISH CREEK AT WILSON, WY 6.0 3.49 410 1,430 2018-05-24 14:00:00
13018300 CACHE CREEK NEAR JACKSON, WY   4.23 89.1 225 2018-05-24 14:45:00  
13018350 FLAT CREEK BELOW CACHE CREEK, NEAR JACKSON, WY 6.0 2.67 246 390 2018-05-24 13:45:00
13018750 SNAKE RIVER BL FLAT CREEK NR JACKSON WY 10 8.40 19,400 30,200 2018-05-24 14:30:00 JKSW4
13022500 SNAKE RIVER AB RESERVOIR NR ALPINE WY   10.69 24,700 38,600 2018-05-24 14:30:00 ALPW4
13022920 Grey's River abv slide nr Bedford, WY   82.68

 

  2018-05-24 14:40:00  
13022925 Grey's River blw slide nr Bedford, WY   60.35

 

  2018-05-24 14:00:00  
13023000 GREYS RIVER AB RESERVOIR NR ALPINE WY   4.54 3,340 7,230 2018-05-24 14:30:00 GREW4
13025500 CROW CREEK NEAR FAIRVIEW, WY   2.77 113 379 2018-05-24 14:45:00  
13027500 SALT RIVER AB RESERVOIR NR ETNA WY 5.5 4.01 2,000 5,090 2018-05-24 14:30:00 SALW4